Time;durP1;ratioP1;P1;durP2;ratioP2;P2;SDS_P1;SDS_P2;PMS_P1;PMS_P2;Temp;Humidity;BMP_temperature;BMP_pressure;BME280_temperature;BME280_humidity;BME280_pressure;Samples;Min_cycle;Max_cycle;Signal;HPM_P1;HPM_P2
2022/10/03 00:02:30;;;;;;;20.75;7.03;;;;;;;7.82;100.00;102403.81;5044001;28;20384;-66
2022/10/03 00:05:22;;;;;;;22.70;7.72;;;;;;;7.90;100.00;102404.13;5045088;28;20037;-65
2022/10/03 00:07:53;;;;;;;23.20;7.80;;;;;;;7.91;100.00;102400.66;5043624;28;20033;-65
2022/10/03 00:10:34;;;;;;;23.10;7.88;;;;;;;7.86;100.00;102407.47;5042682;28;20021;-65
2022/10/03 00:13:09;;;;;;;22.80;7.70;;;;;;;7.92;100.00;102405.09;5041547;28;20074;-66
2022/10/03 00:15:48;;;;;;;22.83;7.80;;;;;;;7.85;100.00;102405.69;5041659;28;20033;-65
2022/10/03 00:18:29;;;;;;;23.00;7.80;;;;;;;7.88;100.00;102403.19;5042804;28;20025;-65
2022/10/03 00:21:18;;;;;;;22.40;6.93;;;;;;;7.79;100.00;102402.78;5044319;28;20059;-65
2022/10/03 00:23:46;;;;;;;23.23;7.63;;;;;;;7.73;100.00;102406.06;5043969;28;20032;-66
2022/10/03 00:26:34;;;;;;;20.05;6.70;;;;;;;7.66;100.00;102404.94;5042475;28;20060;-69
2022/10/03 00:29:21;;;;;;;22.40;7.10;;;;;;;7.54;100.00;102409.66;5041067;28;20039;-65
2022/10/03 00:31:56;;;;;;;25.58;8.27;;;;;;;7.63;100.00;102415.34;5043393;28;20029;-64
2022/10/03 00:34:33;;;;;;;24.50;8.23;;;;;;;7.58;100.00;102422.13;5041601;28;20492;-68
2022/10/03 00:37:18;;;;;;;21.45;7.50;;;;;;;7.64;100.00;102418.84;5040981;28;20053;-65
2022/10/03 00:39:43;;;;;;;22.23;7.97;;;;;;;7.58;100.00;102414.22;5042682;28;20124;-68
2022/10/03 00:42:53;;;;;;;22.90;7.55;;;;;;;7.61;100.00;102424.00;5043506;28;20116;-66
2022/10/03 00:45:42;;;;;;;22.95;6.97;;;;;;;7.50;100.00;102421.81;5043327;28;20038;-66
2022/10/03 00:48:25;;;;;;;23.70;7.63;;;;;;;7.40;100.00;102419.63;5041873;28;20432;-64
2022/10/03 00:50:59;;;;;;;23.90;8.07;;;;;;;7.31;100.00;102432.38;5041320;28;20029;-67
2022/10/03 00:53:49;;;;;;;24.55;7.88;;;;;;;7.25;100.00;102433.03;5044149;28;20029;-68
2022/10/03 00:56:40;;;;;;;23.80;7.70;;;;;;;7.15;100.00;102430.84;5043092;28;20026;-67
2022/10/03 00:59:26;;;;;;;25.17;8.63;;;;;;;7.23;100.00;102439.94;5041374;28;20029;-66
2022/10/03 01:01:51;;;;;;;24.02;8.20;;;;;;;7.29;100.00;102436.69;5041312;28;20063;-66
2022/10/03 01:04:29;;;;;;;23.10;7.95;;;;;;;7.16;100.00;102440.50;5042760;28;20030;-68
2022/10/03 01:07:04;;;;;;;24.23;8.57;;;;;;;7.16;100.00;102443.13;5040908;28;20029;-67
2022/10/03 01:09:41;;;;;;;25.10;8.70;;;;;;;7.06;100.00;102451.47;5040826;28;20071;-68
2022/10/03 01:12:15;;;;;;;25.48;8.57;;;;;;;7.07;100.00;102448.00;5041328;28;20029;-65
2022/10/03 01:15:14;;;;;;;23.35;8.27;;;;;;;7.07;100.00;102459.41;5042645;28;20029;-68
2022/10/03 01:17:58;;;;;;;21.92;7.88;;;;;;;7.09;100.00;102457.78;5041471;28;20033;-66
2022/10/03 01:20:44;;;;;;;24.20;8.27;;;;;;;7.16;100.00;102466.81;5041190;28;20036;-70
2022/10/03 01:23:37;;;;;;;23.83;8.73;;;;;;;7.16;100.00;102464.19;5041418;28;20037;-67
2022/10/03 01:26:32;;;;;;;23.75;9.13;;;;;;;7.09;100.00;102465.66;5040929;28;20030;-64
2022/10/03 01:32:13;;;;;;;24.90;9.48;;;;;;;6.98;100.00;102467.78;5040953;28;20463;-67
2022/10/03 01:35:02;;;;;;;23.58;9.15;;;;;;;6.96;100.00;102464.22;5041538;28;20053;-67
2022/10/03 01:37:51;;;;;;;25.08;9.65;;;;;;;6.96;100.00;102465.91;5040615;28;20069;-67
2022/10/03 01:40:43;;;;;;;24.42;10.20;;;;;;;6.94;100.00;102468.47;5042418;28;20141;-66
2022/10/03 01:43:19;;;;;;;28.27;10.05;;;;;;;6.95;100.00;102470.28;5041291;28;20052;-64
2022/10/03 01:46:07;;;;;;;26.10;10.20;;;;;;;6.89;100.00;102474.38;5042004;28;20035;-64
2022/10/03 01:48:57;;;;;;;25.65;9.43;;;;;;;6.82;100.00;102473.19;5040677;28;20376;-65
2022/10/03 01:51:41;;;;;;;25.80;9.98;;;;;;;6.78;100.00;102468.63;5040864;28;20045;-66
2022/10/03 01:54:28;;;;;;;26.27;10.02;;;;;;;6.72;100.00;102473.59;5040924;28;20056;-66
2022/10/03 01:57:00;;;;;;;25.75;10.20;;;;;;;6.68;100.00;102466.41;5040848;28;20033;-64
2022/10/03 01:59:54;;;;;;;24.95;8.70;;;;;;;6.65;100.00;102471.53;5043543;28;20021;-66
2022/10/03 02:02:47;;;;;;;24.75;9.20;;;;;;;6.60;100.00;102469.56;5042651;28;20026;-64
2022/10/03 02:05:27;;;;;;;26.15;10.10;;;;;;;6.66;100.00;102461.06;5045108;28;20392;-66
2022/10/03 02:08:01;;;;;;;26.55;10.25;;;;;;;6.63;100.00;102472.34;5044301;28;20714;-66
2022/10/03 02:10:32;;;;;;;26.25;10.63;;;;;;;6.63;100.00;102477.59;5047108;28;20029;-69
2022/10/03 02:13:08;;;;;;;26.40;10.23;;;;;;;6.67;100.00;102477.72;5043629;28;20036;-65
2022/10/03 02:15:49;;;;;;;26.05;11.07;;;;;;;6.60;100.00;102480.09;5043593;28;20452;-65
2022/10/03 02:18:33;;;;;;;28.50;11.38;;;;;;;6.57;100.00;102484.31;5041830;28;20479;-69
2022/10/03 02:21:09;;;;;;;25.83;10.77;;;;;;;6.60;100.00;102480.09;5043384;28;20073;-67
2022/10/03 02:23:35;;;;;;;26.10;11.00;;;;;;;6.62;100.00;102485.41;5043465;28;20025;-65
2022/10/03 02:26:09;;;;;;;26.70;11.65;;;;;;;6.58;100.00;102486.09;5046915;28;20484;-65
2022/10/03 02:29:02;;;;;;;27.05;11.93;;;;;;;6.60;100.00;102485.34;5043459;28;20580;-67
2022/10/03 02:32:06;;;;;;;28.10;12.10;;;;;;;6.59;100.00;102480.00;5043396;28;20034;-66
2022/10/03 02:34:59;;;;;;;25.55;11.50;;;;;;;6.60;100.00;102476.56;5043364;28;20392;-67
2022/10/03 02:37:55;;;;;;;23.65;10.02;;;;;;;6.56;100.00;102479.88;5045915;28;20040;-67
2022/10/03 02:40:57;;;;;;;24.98;10.50;;;;;;;6.51;100.00;102484.00;5045176;28;20480;-66
2022/10/03 02:43:42;;;;;;;27.05;10.63;;;;;;;6.59;100.00;102483.53;5045889;28;20044;-68
2022/10/03 02:46:36;;;;;;;26.58;11.20;;;;;;;6.59;100.00;102483.53;5043749;28;20025;-64
2022/10/03 02:49:23;;;;;;;23.45;9.98;;;;;;;6.51;100.00;102478.75;5021097;28;20069;-65
2022/10/03 02:51:54;;;;;;;24.02;10.77;;;;;;;6.57;100.00;102476.44;5024464;28;20103;-70
2022/10/03 02:54:37;;;;;;;25.20;10.65;;;;;;;6.52;100.00;102481.44;5022031;28;20488;-69
2022/10/03 02:57:21;;;;;;;23.73;9.65;;;;;;;6.43;100.00;102474.03;5024470;28;20110;-66
2022/10/03 03:00:02;;;;;;;25.67;10.82;;;;;;;6.47;100.00;102479.44;5022145;28;20041;-68
2022/10/03 03:02:39;;;;;;;24.17;10.05;;;;;;;6.38;100.00;102477.28;5020723;28;20037;-69
2022/10/03 03:05:23;;;;;;;23.80;10.07;;;;;;;6.37;100.00;102472.84;5020772;28;20026;-65
2022/10/03 03:07:51;;;;;;;26.13;11.75;;;;;;;6.41;100.00;102474.81;5021848;28;20080;-65
2022/10/03 03:10:58;;;;;;;28.60;12.80;;;;;;;6.41;100.00;102474.81;5022290;28;20084;-67
2022/10/03 03:13:58;;;;;;;28.40;12.55;;;;;;;6.40;100.00;102486.13;5023838;28;20041;-67
2022/10/03 03:17:14;;;;;;;26.77;12.32;;;;;;;6.38;100.00;102483.44;5023194;28;20533;-65
2022/10/03 03:20:14;;;;;;;27.80;12.68;;;;;;;6.35;100.00;102479.75;4925726;29;20051;-69
2022/10/03 03:23:00;;;;;;;25.30;11.52;;;;;;;6.32;100.00;102488.41;4924235;29;20104;-67
2022/10/03 03:25:42;;;;;;;26.05;11.85;;;;;;;6.28;100.00;102489.06;4934491;28;20038;-68
2022/10/03 03:28:10;;;;;;;26.40;12.05;;;;;;;6.28;100.00;102487.34;4962283;28;20039;-71
2022/10/03 03:30:43;;;;;;;29.73;12.85;;;;;;;6.32;100.00;102490.09;4964577;28;20053;-70
2022/10/03 03:33:08;;;;;;;25.15;12.43;;;;;;;6.26;100.00;102489.00;4962400;28;20451;-66
2022/10/03 03:35:45;;;;;;;25.77;13.30;;;;;;;6.29;100.00;102488.22;4964868;28;20122;-66
2022/10/03 03:38:23;;;;;;;27.45;12.73;;;;;;;6.31;100.00;102493.59;4962446;28;20486;-68
2022/10/03 03:41:02;;;;;;;28.63;13.52;;;;;;;6.30;100.00;102497.91;4962546;28;20062;-67
2022/10/03 03:43:49;;;;;;;28.52;13.98;;;;;;;6.31;100.00;102497.09;4964751;28;20105;-68
2022/10/03 03:46:37;;;;;;;29.45;12.88;;;;;;;6.26;100.00;102502.13;4965267;28;20118;-67
2022/10/03 03:49:41;;;;;;;31.17;13.90;;;;;;;6.25;100.00;102489.81;4964685;28;20035;-68
2022/10/03 03:52:21;;;;;;;28.10;14.10;;;;;;;6.25;100.00;102497.69;4961902;28;20047;-70
2022/10/03 03:55:08;;;;;;;30.40;14.10;;;;;;;6.24;100.00;102492.38;4986729;28;20037;-69
2022/10/03 03:57:50;;;;;;;28.90;14.25;;;;;;;6.13;100.00;102496.19;5041826;28;20057;-68
2022/10/03 04:00:20;;;;;;;30.52;14.18;;;;;;;6.09;100.00;102497.78;5043395;28;20423;-70
2022/10/03 04:03:12;;;;;;;28.92;14.02;;;;;;;6.05;100.00;102501.97;5043560;28;20112;-69
2022/10/03 04:05:54;;;;;;;28.35;13.75;;;;;;;6.03;100.00;102497.47;5042029;28;20534;-71
2022/10/03 04:09:04;;;;;;;30.60;14.43;;;;;;;5.99;100.00;102498.16;5042691;28;20025;-66
2022/10/03 04:11:48;;;;;;;28.25;13.73;;;;;;;5.93;100.00;102502.22;5023532;28;20048;-70
2022/10/03 04:14:41;;;;;;;29.52;14.45;;;;;;;5.91;100.00;102505.59;5021041;28;20172;-71
2022/10/03 04:20:20;;;;;;;29.20;14.73;;;;;;;6.01;100.00;102500.00;5019845;28;20092;-71
2022/10/03 04:23:11;;;;;;;30.95;15.63;;;;;;;5.99;100.00;102508.66;5020973;28;20060;-71
2022/10/03 04:26:24;;;;;;;30.95;15.18;;;;;;;5.97;100.00;102511.22;5022143;28;20038;-70
2022/10/03 04:29:01;;;;;;;30.83;14.77;;;;;;;6.01;100.00;102512.25;4946774;29;20530;-71
2022/10/03 04:31:40;;;;;;;29.15;14.95;;;;;;;5.96;100.00;102505.84;4944549;29;20027;-71
2022/10/03 04:34:23;;;;;;;29.48;14.90;;;;;;;5.96;100.00;102503.22;4948449;29;20491;-70
2022/10/03 04:36:59;;;;;;;32.20;15.57;;;;;;;5.98;100.00;102504.22;4943391;29;20444;-71
2022/10/03 04:39:44;;;;;;;31.48;15.20;;;;;;;5.94;100.00;102503.13;4941555;29;20055;-71
2022/10/03 04:42:25;;;;;;;29.05;14.95;;;;;;;5.98;100.00;102514.72;4943841;29;20102;-70
2022/10/03 04:45:12;;;;;;;27.47;14.10;;;;;;;5.92;100.00;102504.78;4943386;29;20147;-71
2022/10/03 04:47:51;;;;;;;26.35;14.82;;;;;;;5.98;100.00;102509.47;4948325;28;20043;-70
2022/10/03 04:50:35;;;;;;;30.23;15.70;;;;;;;5.96;100.00;102509.38;4962097;28;20046;-71
2022/10/03 04:53:12;;;;;;;31.27;15.10;;;;;;;6.01;100.00;102505.25;4964150;28;20043;-71
2022/10/03 04:55:46;;;;;;;31.20;15.38;;;;;;;6.04;100.00;102500.19;4963644;28;20055;-70
2022/10/03 04:58:20;;;;;;;31.67;15.05;;;;;;;6.06;100.00;102509.03;4962833;28;20106;-71
2022/10/03 05:01:22;;;;;;;31.42;15.55;;;;;;;6.10;100.00;102502.19;4961743;28;20526;-71
2022/10/03 05:04:11;;;;;;;28.85;15.35;;;;;;;6.09;100.00;102508.28;4963570;28;20035;-71
2022/10/03 05:06:47;;;;;;;27.08;13.38;;;;;;;6.02;100.00;102507.06;5041266;28;20113;-71
2022/10/03 05:09:43;;;;;;;25.63;12.95;;;;;;;5.91;100.00;102503.91;5043076;28;20059;-71
2022/10/03 05:12:34;;;;;;;29.13;15.23;;;;;;;5.90;100.00;102512.59;5041063;28;20476;-69
2022/10/03 05:15:33;;;;;;;28.40;14.20;;;;;;;5.91;100.00;102511.78;5040679;28;20152;-69
2022/10/03 05:18:04;;;;;;;27.35;13.45;;;;;;;5.90;100.00;102520.47;5043846;28;20040;-69
2022/10/03 05:20:54;;;;;;;27.42;13.98;;;;;;;5.87;100.00;102520.31;5040555;28;20033;-70
2022/10/03 05:23:38;;;;;;;30.63;14.05;;;;;;;5.92;100.00;102518.81;5042381;28;20472;-70
2022/10/03 05:26:18;;;;;;;31.35;14.25;;;;;;;5.88;100.00;102527.38;5040604;28;20116;-69
2022/10/03 05:28:49;;;;;;;28.23;14.25;;;;;;;5.90;100.00;102530.97;5041619;28;20032;-70
2022/10/03 05:31:51;;;;;;;27.77;13.95;;;;;;;5.87;100.00;102528.19;5042774;28;20533;-70
2022/10/03 05:34:40;;;;;;;28.20;14.23;;;;;;;5.92;100.00;102529.28;5042340;28;20036;-70
2022/10/03 05:37:12;;;;;;;30.95;14.77;;;;;;;5.91;100.00;102538.03;5040538;28;20025;-69
2022/10/03 05:39:37;;;;;;;27.48;14.15;;;;;;;5.90;100.00;102540.56;5046602;28;20499;-70
2022/10/03 05:42:14;;;;;;;31.00;15.15;;;;;;;5.91;100.00;102539.72;5044482;28;20029;-69
2022/10/03 05:44:46;;;;;;;30.00;14.10;;;;;;;6.04;100.00;102543.91;5044827;28;20036;-70
2022/10/03 05:47:45;;;;;;;30.55;14.50;;;;;;;6.08;100.00;102541.50;5046524;28;20569;-69
2022/10/03 05:50:26;;;;;;;30.77;14.77;;;;;;;6.08;100.00;102549.38;5044957;28;20021;-70
2022/10/03 05:53:13;;;;;;;30.27;14.65;;;;;;;6.08;100.00;102541.50;5044974;28;20387;-69
2022/10/03 05:56:04;;;;;;;28.77;14.35;;;;;;;6.12;100.00;102539.94;5044308;28;20473;-69
2022/10/03 05:58:46;;;;;;;31.13;15.23;;;;;;;6.17;100.00;102538.44;5042209;28;20057;-65
2022/10/03 06:01:46;;;;;;;30.55;15.18;;;;;;;6.22;100.00;102549.19;5053526;28;20036;-68
2022/10/03 06:04:30;;;;;;;29.88;14.70;;;;;;;6.28;100.00;102549.47;5051797;28;20029;-68
2022/10/03 06:07:06;;;;;;;30.10;14.98;;;;;;;6.34;100.00;102560.28;5053760;28;20037;-73
2022/10/03 06:10:09;;;;;;;27.70;14.30;;;;;;;6.36;100.00;102561.25;5053279;28;20558;-73
2022/10/03 06:12:45;;;;;;;27.70;14.30;;;;;;;6.48;100.00;102550.47;5053506;28;20112;-72
2022/10/03 06:15:42;;;;;;;30.90;15.27;;;;;;;6.56;100.00;102554.34;5054009;28;20456;-72
2022/10/03 06:18:31;;;;;;;28.98;14.55;;;;;;;6.61;100.00;102563.34;5053061;28;20025;-73
2022/10/03 06:21:27;;;;;;;29.27;14.23;;;;;;;6.65;100.00;102563.50;5054121;28;20025;-73
2022/10/03 06:24:21;;;;;;;27.60;13.48;;;;;;;6.72;100.00;102569.13;5054090;28;20111;-73
2022/10/03 06:27:04;;;;;;;28.20;13.38;;;;;;;6.75;100.00;102560.47;5053041;28;20365;-71
2022/10/03 06:29:30;;;;;;;27.33;13.90;;;;;;;6.71;100.00;102574.28;5052428;28;20036;-72
2022/10/03 06:31:58;;;;;;;29.05;14.20;;;;;;;6.69;100.00;102570.72;5054017;28;20388;-71
2022/10/03 06:34:38;;;;;;;29.65;14.75;;;;;;;6.70;100.00;102567.22;5054395;28;20036;-72
2022/10/03 06:37:37;;;;;;;28.60;14.23;;;;;;;6.69;100.00;102576.84;5051079;28;20029;-67
2022/10/03 06:40:25;;;;;;;31.33;14.80;;;;;;;6.71;100.00;102574.28;5053565;28;20514;-66
2022/10/03 06:43:12;;;;;;;27.95;14.60;;;;;;;6.69;100.00;102566.34;5053966;28;20064;-64
2022/10/03 06:46:06;;;;;;;30.35;15.73;;;;;;;6.72;100.00;102577.00;5051841;28;20035;-65
2022/10/03 06:48:57;;;;;;;30.73;15.57;;;;;;;6.78;100.00;102566.75;5049823;28;20029;-64
2022/10/03 06:51:58;;;;;;;29.23;15.25;;;;;;;6.85;100.00;102567.97;5053039;28;20035;-64
2022/10/03 06:55:11;;;;;;;28.40;15.88;;;;;;;6.91;100.00;102578.78;5011591;28;20535;-65
2022/10/03 06:57:45;;;;;;;27.95;15.45;;;;;;;6.97;100.00;102580.78;5010619;28;20037;-64
2022/10/03 07:00:41;;;;;;;30.55;16.17;;;;;;;7.05;100.00;102582.06;5011771;28;20038;-66
2022/10/03 07:03:25;;;;;;;31.40;16.77;;;;;;;7.12;100.00;102580.59;5010676;28;20038;-66
2022/10/03 07:06:13;;;;;;;28.83;16.88;;;;;;;7.19;100.00;102580.03;5011066;28;20045;-64
2022/10/03 07:09:16;;;;;;;28.48;16.17;;;;;;;7.24;100.00;102588.16;5009187;28;20029;-64
2022/10/03 07:12:26;;;;;;;30.10;16.98;;;;;;;7.35;100.00;102596.53;5009055;28;20041;-64
2022/10/03 07:15:03;;;;;;;30.88;17.13;;;;;;;7.44;100.00;102582.09;4948031;28;20042;-65
2022/10/03 07:17:53;;;;;;;31.40;16.85;;;;;;;7.56;100.00;102581.72;4944691;29;20040;-64
2022/10/03 07:20:57;;;;;;;29.45;16.70;;;;;;;7.68;100.00;102584.88;4947669;29;20144;-65
2022/10/03 07:23:44;;;;;;;30.33;16.98;;;;;;;7.76;100.00;102590.50;4948180;29;20028;-64
2022/10/03 07:26:10;;;;;;;29.38;17.00;;;;;;;7.88;100.00;102595.41;4948635;28;20062;-67
2022/10/03 07:29:06;;;;;;;28.58;16.52;;;;;;;8.00;100.00;102600.28;4946665;29;20032;-65
2022/10/03 07:31:38;;;;;;;28.85;16.33;;;;;;;8.08;100.00;102595.34;4990304;28;20100;-65
2022/10/03 07:34:24;;;;;;;30.13;16.80;;;;;;;8.19;100.00;102600.22;5006167;28;20037;-64
2022/10/03 07:40:32;;;;;;;27.25;15.48;;;;;;;8.40;100.00;102596.69;5003013;28;20057;-65
2022/10/03 07:43:00;;;;;;;29.80;15.38;;;;;;;8.48;100.00;102599.69;5006733;28;20112;-65
2022/10/03 07:46:06;;;;;;;29.17;14.73;;;;;;;8.58;100.00;102601.84;5002980;28;20033;-65
2022/10/03 07:48:41;;;;;;;26.25;13.80;;;;;;;8.68;100.00;102609.28;5003107;28;20048;-68
2022/10/03 07:51:22;;;;;;;29.25;14.55;;;;;;;8.81;100.00;102608.06;5027156;28;20495;-66
2022/10/03 07:54:23;;;;;;;29.38;14.30;;;;;;;8.96;100.00;102610.38;5050577;28;20752;-66
2022/10/03 07:57:02;;;;;;;26.92;14.80;;;;;;;9.11;100.00;102617.09;5052558;28;20391;-65
2022/10/03 07:59:46;;;;;;;25.55;14.05;;;;;;;9.24;100.00;102622.00;5050531;28;20033;-64
2022/10/03 08:02:14;;;;;;;27.40;13.88;;;;;;;9.39;100.00;102624.31;5048078;28;20029;-64
2022/10/03 08:04:57;;;;;;;26.92;13.68;;;;;;;9.55;100.00;102626.72;5051246;28;20080;-64
2022/10/03 08:07:32;;;;;;;27.45;13.45;;;;;;;9.72;100.00;102629.94;5050784;28;20051;-64
2022/10/03 08:10:20;;;;;;;27.52;13.25;;;;;;;9.86;100.00;102630.44;5050187;28;20040;-64
2022/10/03 08:13:12;;;;;;;27.13;13.48;;;;;;;10.02;100.00;102616.03;5050665;28;20029;-64
2022/10/03 08:16:07;;;;;;;26.85;12.02;;;;;;;10.06;100.00;102617.94;5050571;28;20028;-65
2022/10/03 08:19:00;;;;;;;26.50;12.00;;;;;;;10.15;100.00;102624.38;5050902;28;20021;-66
2022/10/03 08:21:52;;;;;;;23.33;12.02;;;;;;;10.25;100.00;102615.91;5051236;28;20062;-65
2022/10/03 08:24:35;;;;;;;26.15;12.52;;;;;;;10.38;100.00;102611.97;5051938;28;20054;-69
2022/10/03 08:27:13;;;;;;;26.80;12.98;;;;;;;10.49;100.00;102617.63;5050803;28;20029;-67
2022/10/03 08:29:56;;;;;;;26.40;12.55;;;;;;;10.60;100.00;102613.56;5049142;28;20033;-71
2022/10/03 08:32:35;;;;;;;24.90;11.70;;;;;;;10.74;100.00;102614.91;5050276;28;20045;-72
2022/10/03 08:35:28;;;;;;;25.10;11.88;;;;;;;10.92;100.00;102617.25;5051828;28;20032;-71
2022/10/03 08:38:17;;;;;;;25.95;12.30;;;;;;;11.16;100.00;102624.16;5049819;28;20561;-72
2022/10/03 08:41:07;;;;;;;23.63;11.90;;;;;;;11.37;100.00;102634.47;5050412;28;20431;-66
2022/10/03 08:44:11;;;;;;;23.58;10.15;;;;;;;11.59;100.00;102629.78;5050913;28;20124;-67
2022/10/03 08:47:02;;;;;;;23.15;10.60;;;;;;;11.79;100.00;102628.59;5045612;28;20515;-66
2022/10/03 08:50:02;;;;;;;23.27;9.55;;;;;;;12.02;100.00;102626.59;5051438;28;20033;-64
2022/10/03 08:53:01;;;;;;;23.27;9.80;;;;;;;12.54;100.00;102624.41;5050128;28;20099;-64
2022/10/03 08:56:06;;;;;;;22.73;9.23;;;;;;;13.05;100.00;102630.00;5051579;28;20033;-64
2022/10/03 08:58:43;;;;;;;23.92;8.60;;;;;;;13.82;100.00;102634.28;5022157;28;20069;-65
2022/10/03 09:01:26;;;;;;;21.75;7.20;;;;;;;13.94;100.00;102631.84;5023574;28;20081;-65
2022/10/03 09:04:33;;;;;;;21.58;7.40;;;;;;;13.72;100.00;102629.66;5014575;28;20137;-64
2022/10/03 09:07:09;;;;;;;21.17;7.28;;;;;;;13.91;100.00;102631.81;5025233;28;20037;-66
2022/10/03 09:10:06;;;;;;;20.75;7.20;;;;;;;14.38;100.00;102627.31;5021007;28;20477;-67
2022/10/03 09:12:53;;;;;;;20.83;6.65;;;;;;;14.86;100.00;102639.63;5027168;28;20072;-66
2022/10/03 09:15:38;;;;;;;21.90;6.55;;;;;;;15.13;100.00;102635.56;5026999;28;20103;-66
2022/10/03 09:18:09;;;;;;;20.58;6.43;;;;;;;14.97;100.00;102638.03;5024584;28;20029;-65
2022/10/03 09:20:47;;;;;;;21.70;6.90;;;;;;;15.24;100.00;102635.72;5026942;28;20080;-65
2022/10/03 09:23:50;;;;;;;21.08;6.93;;;;;;;15.47;100.00;102636.03;5026141;28;20030;-66
2022/10/03 09:26:22;;;;;;;;;;;;;;;15.77;100.00;102629.25;5027847;28;20405;-65
2022/10/03 09:28:50;;;;;;;20.95;6.13;;;;;;;16.41;100.00;102623.69;5027939;28;19913;-65
2022/10/03 09:31:46;;;;;;;22.77;6.65;;;;;;;16.96;100.00;102625.88;5029083;28;20040;-69
2022/10/03 09:34:17;;;;;;;20.33;5.90;;;;;;;17.50;100.00;102626.13;5043113;28;20080;-69
2022/10/03 09:37:07;;;;;;;19.80;5.50;;;;;;;17.67;100.00;102610.16;5055319;28;20036;-69
2022/10/03 09:39:57;;;;;;;19.08;5.80;;;;;;;17.26;100.00;102610.91;5054819;28;20403;-69
2022/10/03 09:42:58;;;;;;;19.08;4.97;;;;;;;16.95;100.00;102610.75;5052867;28;20380;-69
2022/10/03 09:45:41;;;;;;;21.45;5.70;;;;;;;16.79;100.00;102604.41;5046203;28;20119;-69
2022/10/03 09:48:35;;;;;;;20.60;5.95;;;;;;;16.51;100.00;102608.63;5044162;28;20026;-69
2022/10/03 09:51:41;;;;;;;18.17;4.70;;;;;;;16.44;100.00;102601.47;5046861;28;20479;-69
2022/10/03 09:54:31;;;;;;;18.52;4.68;;;;;;;16.49;100.00;102603.28;5044210;28;20029;-69
2022/10/03 09:57:19;;;;;;;22.17;5.40;;;;;;;16.50;100.00;102599.75;5046490;28;20040;-68
2022/10/03 10:00:07;;;;;;;18.70;5.13;;;;;;;16.53;100.00;102599.75;5044485;28;20034;-69
2022/10/03 10:02:35;;;;;;;20.38;5.30;;;;;;;17.55;100.00;102599.44;5044238;28;20026;-69
2022/10/03 10:05:32;;;;;;;18.90;4.80;;;;;;;18.80;100.00;102604.88;5046758;28;20095;-69
2022/10/03 10:08:26;;;;;;;19.95;4.60;;;;;;;18.59;100.00;102601.31;5046357;28;20034;-69
2022/10/03 10:11:10;;;;;;;18.33;4.45;;;;;;;18.28;100.00;102593.31;5045536;28;20047;-69
2022/10/03 10:14:14;;;;;;;15.38;3.50;;;;;;;18.42;100.00;102593.31;5043843;28;20029;-68
2022/10/03 10:16:50;;;;;;;17.08;3.80;;;;;;;18.77;100.00;102592.38;5043500;28;20440;-69
2022/10/03 10:19:43;;;;;;;14.65;3.33;;;;;;;18.89;100.00;102594.16;5044154;28;20400;-64
2022/10/03 10:22:16;;;;;;;16.45;3.70;;;;;;;18.99;100.00;102606.63;5043548;28;20038;-64
2022/10/03 10:24:50;;;;;;;18.48;3.53;;;;;;;19.12;100.00;102601.22;5045282;28;20032;-68
2022/10/03 10:27:47;;;;;;;15.23;3.47;;;;;;;19.95;100.00;102594.56;5044556;28;20033;-67
2022/10/03 10:30:50;;;;;;;18.88;3.50;;;;;;;21.90;100.00;102593.31;5021185;28;20476;-68
2022/10/03 10:33:46;;;;;;;15.65;2.92;;;;;;;22.77;100.00;102598.13;5024648;28;20041;-67
2022/10/03 10:36:14;;;;;;;17.27;3.20;;;;;;;22.76;68.26;102590.94;5024683;28;20045;-65
2022/10/03 10:39:09;;;;;;;14.90;2.90;;;;;;;23.56;73.16;102591.13;5024138;28;20033;-66
2022/10/03 10:42:06;;;;;;;16.15;3.00;;;;;;;24.74;64.67;102586.41;5024480;28;20128;-66
2022/10/03 10:44:50;;;;;;;17.90;3.00;;;;;;;24.97;46.94;102594.75;5024735;28;20040;-67
2022/10/03 10:47:26;;;;;;;10.85;2.53;;;;;;;25.32;47.61;102595.56;5024734;28;20048;-67
2022/10/03 10:50:09;;;;;;;17.30;3.17;;;;;;;25.09;50.06;102598.94;5022336;28;20025;-69
2022/10/03 10:52:34;;;;;;;12.70;2.90;;;;;;;24.30;48.58;102592.94;5024589;28;20037;-68
2022/10/03 10:55:21;;;;;;;13.00;2.43;;;;;;;23.60;51.28;102593.72;5023940;28;20049;-66
2022/10/03 10:58:21;;;;;;;13.45;2.47;;;;;;;23.22;54.04;102592.75;5024123;28;20281;-67
2022/10/03 11:01:05;;;;;;;15.40;2.72;;;;;;;24.00;50.77;102594.63;5023911;28;20121;-68
2022/10/03 11:04:01;;;;;;;12.82;2.80;;;;;;;23.45;52.16;102596.78;5020721;28;20030;-68
2022/10/03 11:06:41;;;;;;;15.52;3.10;;;;;;;22.98;53.81;102597.72;5024650;28;20508;-65
2022/10/03 11:09:34;;;;;;;14.15;2.78;;;;;;;23.06;52.37;102599.34;5042896;28;20037;-64
2022/10/03 11:12:20;;;;;;;15.00;2.70;;;;;;;23.80;48.82;102593.25;5040806;28;20021;-63
2022/10/03 11:15:07;;;;;;;14.57;2.80;;;;;;;25.27;46.24;102592.09;5044769;28;20064;-64
2022/10/03 11:18:07;;;;;;;14.73;2.78;;;;;;;26.74;41.75;102596.34;5053143;28;20104;-63
2022/10/03 11:20:56;;;;;;;14.57;2.85;;;;;;;26.78;41.78;102581.75;5051386;28;20033;-63
2022/10/03 11:23:30;;;;;;;15.00;2.70;;;;;;;25.46;39.04;102578.03;5053403;28;20024;-63
2022/10/03 11:26:17;;;;;;;13.40;2.42;;;;;;;25.53;41.54;102575.09;5050714;28;20036;-63
2022/10/03 11:29:09;;;;;;;13.30;2.67;;;;;;;26.78;39.60;102573.59;5051306;28;20365;-64
2022/10/03 11:32:11;;;;;;;14.57;2.80;;;;;;;27.13;42.34;102575.94;5051242;28;20037;-64
2022/10/03 11:35:40;;;;;;;14.77;2.65;;;;;;;27.98;40.11;102561.72;5052100;28;20025;-63
2022/10/03 11:38:28;;;;;;;12.50;2.60;;;;;;;29.00;36.18;102565.41;5029334;28;20116;-64
2022/10/03 11:41:15;;;;;;;14.13;3.00;;;;;;;28.38;36.74;102565.41;5029657;28;20581;-63
2022/10/03 11:44:18;;;;;;;13.07;2.40;;;;;;;29.34;34.93;102581.06;5030548;28;20075;-63
2022/10/03 11:46:46;;;;;;;13.85;2.40;;;;;;;29.30;31.88;102581.25;5011432;28;20481;-64
2022/10/03 11:49:37;;;;;;;12.90;2.63;;;;;;;29.54;35.61;102577.34;5027759;28;20060;-65
2022/10/03 11:52:05;;;;;;;12.05;2.53;;;;;;;29.82;30.59;102576.00;5029471;28;20057;-64
2022/10/03 11:54:44;;;;;;;12.45;2.40;;;;;;;29.76;32.27;102575.41;5030521;28;20033;-63
2022/10/03 11:57:33;;;;;;;14.15;2.60;;;;;;;30.03;33.73;102567.72;5030713;28;20163;-65
2022/10/03 12:00:18;;;;;;;17.67;2.80;;;;;;;30.99;32.64;102573.56;5023276;28;20042;-62
2022/10/03 12:03:29;;;;;;;14.25;2.35;;;;;;;31.44;31.65;102577.44;5022661;28;20428;-62
2022/10/03 12:09:01;;;;;;;14.07;2.30;;;;;;;29.30;30.48;102568.53;5020461;28;20152;-63
2022/10/03 12:11:28;;;;;;;13.25;2.40;;;;;;;28.40;31.11;102559.91;5025701;28;20029;-62
2022/10/03 12:14:11;;;;;;;11.90;2.42;;;;;;;27.87;33.50;102566.69;5045125;28;20084;-69
2022/10/03 12:16:56;;;;;;;12.98;2.45;;;;;;;30.15;32.91;102561.63;5050894;28;20025;-69
2022/10/03 12:19:32;;;;;;;13.80;2.88;;;;;;;31.36;28.84;102561.50;5051933;28;20531;-69
2022/10/03 12:22:23;;;;;;;14.27;2.45;;;;;;;32.28;28.69;102566.16;5049460;28;20033;-73
2022/10/03 12:24:49;;;;;;;12.60;2.40;;;;;;;31.61;27.01;102555.50;5051700;28;20052;-70
2022/10/03 12:27:20;;;;;;;11.80;2.50;;;;;;;30.14;28.68;102554.41;5051778;28;20680;-69
2022/10/03 12:29:56;;;;;;;14.73;2.60;;;;;;;29.47;31.61;102548.63;5051840;28;20043;-71
2022/10/03 12:32:24;;;;;;;11.45;2.53;;;;;;;28.61;30.80;102548.09;5051824;28;20311;-70
2022/10/03 12:35:32;;;;;;;14.85;2.60;;;;;;;26.95;34.07;102542.25;5051560;28;20044;-69
2022/10/03 12:38:21;;;;;;;15.20;2.95;;;;;;;25.39;36.71;102550.28;5049902;28;20040;-62
2022/10/03 12:41:05;;;;;;;15.20;2.97;;;;;;;25.21;38.59;102546.28;5048758;28;20053;-63
2022/10/03 12:44:04;;;;;;;16.88;2.90;;;;;;;24.85;39.89;102543.75;5052009;28;20029;-62
2022/10/03 12:46:44;;;;;;;15.75;3.20;;;;;;;24.26;41.13;102534.53;5051189;28;20102;-63
2022/10/03 12:49:21;;;;;;;14.70;3.00;;;;;;;23.60;42.09;102528.94;5051587;28;20025;-63